sensor_id;sensor_type;location;lat;lon;timestamp;pressure;altitude;pressure_sealevel;temperature;humidity
6028;BME280;3042;43.194;27.646;2023-12-20T00:02:21;101975.34;;;7.86;100.00
6028;BME280;3042;43.194;27.646;2023-12-20T00:04:48;102066.31;;;8.32;100.00
6028;BME280;3042;43.194;27.646;2023-12-20T00:07:16;102056.03;;;8.32;100.00
6028;BME280;3042;43.194;27.646;2023-12-20T00:09:43;102037.38;;;8.12;100.00
6028;BME280;3042;43.194;27.646;2023-12-20T00:12:10;101950.22;;;7.59;100.00
6028;BME280;3042;43.194;27.646;2023-12-20T00:14:39;102025.53;;;8.14;100.00
6028;BME280;3042;43.194;27.646;2023-12-20T00:17:06;102056.34;;;8.24;100.00
6028;BME280;3042;43.194;27.646;2023-12-20T00:19:33;102061.81;;;8.17;100.00
6028;BME280;3042;43.194;27.646;2023-12-20T00:22:00;102048.47;;;8.11;100.00
6028;BME280;3042;43.194;27.646;2023-12-20T00:24:27;102053.06;;;8.15;100.00
6028;BME280;3042;43.194;27.646;2023-12-20T00:26:54;102045.34;;;8.15;100.00
6028;BME280;3042;43.194;27.646;2023-12-20T00:29:22;101621.38;;;5.79;100.00
6028;BME280;3042;43.194;27.646;2023-12-20T00:31:50;102040.09;;;8.14;100.00
6028;BME280;3042;43.194;27.646;2023-12-20T00:34:17;102035.81;;;8.14;100.00
6028;BME280;3042;43.194;27.646;2023-12-20T00:36:45;102031.16;;;8.20;100.00
6028;BME280;3042;43.194;27.646;2023-12-20T00:39:13;102025.44;;;8.24;100.00
6028;BME280;3042;43.194;27.646;2023-12-20T00:41:40;102026.34;;;8.25;100.00
6028;BME280;3042;43.194;27.646;2023-12-20T00:44:07;101989.13;;;8.10;100.00
6028;BME280;3042;43.194;27.646;2023-12-20T00:46:34;102032.38;;;8.37;100.00
6028;BME280;3042;43.194;27.646;2023-12-20T00:49:03;102022.34;;;8.40;100.00
6028;BME280;3042;43.194;27.646;2023-12-20T00:51:30;102021.75;;;8.33;100.00
6028;BME280;3042;43.194;27.646;2023-12-20T00:53:57;102019.72;;;8.29;100.00
6028;BME280;3042;43.194;27.646;2023-12-20T00:56:24;102019.44;;;8.36;100.00
6028;BME280;3042;43.194;27.646;2023-12-20T00:58:51;102008.09;;;8.34;100.00
6028;BME280;3042;43.194;27.646;2023-12-20T01:01:19;102009.22;;;8.25;100.00
6028;BME280;3042;43.194;27.646;2023-12-20T01:03:46;101998.91;;;8.25;100.00
6028;BME280;3042;43.194;27.646;2023-12-20T01:06:15;101998.34;;;8.30;100.00
6028;BME280;3042;43.194;27.646;2023-12-20T01:08:42;101831.44;;;7.42;100.00
6028;BME280;3042;43.194;27.646;2023-12-20T01:11:09;101992.66;;;8.34;100.00
6028;BME280;3042;43.194;27.646;2023-12-20T01:13:36;101990.97;;;8.34;100.00
6028;BME280;3042;43.194;27.646;2023-12-20T01:16:04;101987.25;;;8.31;100.00
6028;BME280;3042;43.194;27.646;2023-12-20T01:18:31;101966.66;;;8.19;100.00
6028;BME280;3042;43.194;27.646;2023-12-20T01:21:01;101981.69;;;8.36;100.00
6028;BME280;3042;43.194;27.646;2023-12-20T01:23:31;101977.41;;;8.37;100.00
6028;BME280;3042;43.194;27.646;2023-12-20T01:25:59;101943.41;;;8.17;100.00
6028;BME280;3042;43.194;27.646;2023-12-20T01:28:26;101937.78;;;8.11;100.00
6028;BME280;3042;43.194;27.646;2023-12-20T01:30:53;101961.75;;;8.22;100.00
6028;BME280;3042;43.194;27.646;2023-12-20T01:33:20;101963.53;;;8.23;100.00
6028;BME280;3042;43.194;27.646;2023-12-20T01:35:48;101963.16;;;7.95;100.00
6028;BME280;3042;43.194;27.646;2023-12-20T01:38:16;101951.59;;;7.66;100.00
6028;BME280;3042;43.194;27.646;2023-12-20T01:40:45;101935.28;;;7.66;100.00
6028;BME280;3042;43.194;27.646;2023-12-20T01:43:13;101954.53;;;7.82;100.00
6028;BME280;3042;43.194;27.646;2023-12-20T01:45:40;101951.44;;;7.87;100.00
6028;BME280;3042;43.194;27.646;2023-12-20T01:48:08;101946.50;;;7.90;100.00
6028;BME280;3042;43.194;27.646;2023-12-20T01:50:37;101944.69;;;7.89;100.00
6028;BME280;3042;43.194;27.646;2023-12-20T01:53:06;101941.13;;;7.87;100.00
6028;BME280;3042;43.194;27.646;2023-12-20T01:55:35;101883.81;;;7.54;100.00
6028;BME280;3042;43.194;27.646;2023-12-20T01:58:07;101931.38;;;7.82;100.00
6028;BME280;3042;43.194;27.646;2023-12-20T02:00:36;101918.88;;;7.87;100.00
6028;BME280;3042;43.194;27.646;2023-12-20T02:03:04;101918.28;;;7.91;100.00
6028;BME280;3042;43.194;27.646;2023-12-20T02:05:33;101907.34;;;7.94;100.00
6028;BME280;3042;43.194;27.646;2023-12-20T02:08:00;101901.97;;;7.91;100.00
6028;BME280;3042;43.194;27.646;2023-12-20T02:10:28;101877.56;;;7.74;100.00
6028;BME280;3042;43.194;27.646;2023-12-20T02:12:56;101902.41;;;7.85;100.00
6028;BME280;3042;43.194;27.646;2023-12-20T02:15:24;101896.59;;;7.88;100.00
6028;BME280;3042;43.194;27.646;2023-12-20T02:17:52;101857.19;;;7.65;100.00
6028;BME280;3042;43.194;27.646;2023-12-20T02:20:19;101868.84;;;7.72;100.00
6028;BME280;3042;43.194;27.646;2023-12-20T02:22:47;101883.59;;;7.74;100.00
6028;BME280;3042;43.194;27.646;2023-12-20T02:25:15;101879.09;;;7.60;100.00
6028;BME280;3042;43.194;27.646;2023-12-20T02:27:42;101848.91;;;7.46;100.00
6028;BME280;3042;43.194;27.646;2023-12-20T02:30:10;101875.19;;;7.65;100.00
6028;BME280;3042;43.194;27.646;2023-12-20T02:32:37;101876.00;;;7.64;100.00
6028;BME280;3042;43.194;27.646;2023-12-20T02:35:05;101870.63;;;7.61;100.00
6028;BME280;3042;43.194;27.646;2023-12-20T02:37:33;101865.72;;;7.64;100.00
6028;BME280;3042;43.194;27.646;2023-12-20T02:40:01;101857.66;;;7.71;100.00
6028;BME280;3042;43.194;27.646;2023-12-20T02:42:30;101770.59;;;7.18;100.00
6028;BME280;3042;43.194;27.646;2023-12-20T02:44:57;101856.75;;;7.59;100.00
6028;BME280;3042;43.194;27.646;2023-12-20T02:47:24;101865.03;;;7.55;100.00
6028;BME280;3042;43.194;27.646;2023-12-20T02:49:51;101852.97;;;7.54;100.00
6028;BME280;3042;43.194;27.646;2023-12-20T02:52:19;101851.63;;;7.59;100.00
6028;BME280;3042;43.194;27.646;2023-12-20T02:54:46;101706.22;;;6.82;100.00
6028;BME280;3042;43.194;27.646;2023-12-20T02:57:14;101855.41;;;7.64;100.00
6028;BME280;3042;43.194;27.646;2023-12-20T02:59:42;101858.31;;;7.57;100.00
6028;BME280;3042;43.194;27.646;2023-12-20T03:02:09;101858.31;;;7.45;100.00
6028;BME280;3042;43.194;27.646;2023-12-20T03:04:36;101828.75;;;7.28;100.00
6028;BME280;3042;43.194;27.646;2023-12-20T03:07:03;101855.28;;;7.51;100.00
6028;BME280;3042;43.194;27.646;2023-12-20T03:09:30;101800.56;;;7.18;100.00
6028;BME280;3042;43.194;27.646;2023-12-20T03:11:57;101761.19;;;6.95;100.00
6028;BME280;3042;43.194;27.646;2023-12-20T03:14:26;101781.53;;;7.04;100.00
6028;BME280;3042;43.194;27.646;2023-12-20T03:16:53;101852.69;;;7.39;100.00
6028;BME280;3042;43.194;27.646;2023-12-20T03:19:20;101846.44;;;7.35;100.00
6028;BME280;3042;43.194;27.646;2023-12-20T03:21:49;101845.97;;;7.29;100.00
6028;BME280;3042;43.194;27.646;2023-12-20T03:24:18;101850.63;;;7.23;100.00
6028;BME280;3042;43.194;27.646;2023-12-20T03:26:45;101853.31;;;7.25;100.00
6028;BME280;3042;43.194;27.646;2023-12-20T03:29:13;101848.38;;;7.16;100.00
6028;BME280;3042;43.194;27.646;2023-12-20T03:31:41;101844.56;;;7.11;100.00
6028;BME280;3042;43.194;27.646;2023-12-20T03:34:08;101836.97;;;7.12;100.00
6028;BME280;3042;43.194;27.646;2023-12-20T03:36:36;101838.34;;;7.19;100.00
6028;BME280;3042;43.194;27.646;2023-12-20T03:39:04;101835.00;;;7.20;100.00
6028;BME280;3042;43.194;27.646;2023-12-20T03:41:32;101831.19;;;7.15;100.00
6028;BME280;3042;43.194;27.646;2023-12-20T03:43:59;101829.31;;;7.24;100.00
6028;BME280;3042;43.194;27.646;2023-12-20T03:46:26;101832.22;;;7.29;100.00
6028;BME280;3042;43.194;27.646;2023-12-20T03:48:55;101779.56;;;7.12;100.00
6028;BME280;3042;43.194;27.646;2023-12-20T03:51:22;101812.22;;;7.36;100.00
6028;BME280;3042;43.194;27.646;2023-12-20T03:53:49;101797.28;;;7.09;100.00
6028;BME280;3042;43.194;27.646;2023-12-20T03:56:16;101824.47;;;7.17;100.00
6028;BME280;3042;43.194;27.646;2023-12-20T03:58:43;101820.72;;;7.24;100.00
6028;BME280;3042;43.194;27.646;2023-12-20T04:01:11;101770.56;;;6.95;100.00
6028;BME280;3042;43.194;27.646;2023-12-20T04:03:38;101827.88;;;7.39;100.00
6028;BME280;3042;43.194;27.646;2023-12-20T04:06:07;101824.06;;;7.34;100.00
6028;BME280;3042;43.194;27.646;2023-12-20T04:08:35;101719.81;;;6.81;100.00
6028;BME280;3042;43.194;27.646;2023-12-20T04:11:02;101706.19;;;6.70;100.00
6028;BME280;3042;43.194;27.646;2023-12-20T04:13:29;101809.53;;;7.47;100.00
6028;BME280;3042;43.194;27.646;2023-12-20T04:15:57;101806.00;;;7.56;100.00
6028;BME280;3042;43.194;27.646;2023-12-20T04:18:24;101737.78;;;7.26;100.00
6028;BME280;3042;43.194;27.646;2023-12-20T04:20:52;101795.47;;;7.65;100.00
6028;BME280;3042;43.194;27.646;2023-12-20T04:23:20;101807.97;;;7.60;100.00
6028;BME280;3042;43.194;27.646;2023-12-20T04:25:47;101708.22;;;6.97;100.00
6028;BME280;3042;43.194;27.646;2023-12-20T04:28:14;101797.03;;;7.51;100.00
6028;BME280;3042;43.194;27.646;2023-12-20T04:30:42;101802.16;;;7.51;100.00
6028;BME280;3042;43.194;27.646;2023-12-20T04:33:09;101791.31;;;7.44;100.00
6028;BME280;3042;43.194;27.646;2023-12-20T04:35:36;101793.91;;;7.44;100.00
6028;BME280;3042;43.194;27.646;2023-12-20T04:38:04;101790.97;;;7.39;100.00
6028;BME280;3042;43.194;27.646;2023-12-20T04:40:33;101786.50;;;7.36;100.00
6028;BME280;3042;43.194;27.646;2023-12-20T04:43:00;101782.94;;;7.34;100.00
6028;BME280;3042;43.194;27.646;2023-12-20T04:45:28;101785.41;;;7.33;100.00
6028;BME280;3042;43.194;27.646;2023-12-20T04:47:55;101784.72;;;7.24;100.00
6028;BME280;3042;43.194;27.646;2023-12-20T04:50:22;101782.25;;;7.25;100.00
6028;BME280;3042;43.194;27.646;2023-12-20T04:52:49;101792.78;;;7.28;100.00
6028;BME280;3042;43.194;27.646;2023-12-20T04:55:17;101783.19;;;7.37;100.00
6028;BME280;3042;43.194;27.646;2023-12-20T04:57:45;101779.34;;;7.44;100.00
6028;BME280;3042;43.194;27.646;2023-12-20T05:00:13;101776.91;;;7.46;100.00
6028;BME280;3042;43.194;27.646;2023-12-20T05:02:41;101780.03;;;7.42;100.00
6028;BME280;3042;43.194;27.646;2023-12-20T05:05:08;101778.47;;;7.32;100.00
6028;BME280;3042;43.194;27.646;2023-12-20T05:07:36;101768.84;;;7.29;100.00
6028;BME280;3042;43.194;27.646;2023-12-20T05:10:03;101777.78;;;7.34;100.00
6028;BME280;3042;43.194;27.646;2023-12-20T05:12:31;101648.06;;;6.48;100.00
6028;BME280;3042;43.194;27.646;2023-12-20T05:15:00;101772.22;;;7.28;100.00
6028;BME280;3042;43.194;27.646;2023-12-20T05:17:27;101766.81;;;7.25;100.00
6028;BME280;3042;43.194;27.646;2023-12-20T05:19:54;101729.06;;;7.12;100.00
6028;BME280;3042;43.194;27.646;2023-12-20T05:22:22;101762.81;;;7.40;100.00
6028;BME280;3042;43.194;27.646;2023-12-20T05:24:49;101763.94;;;7.44;100.00
6028;BME280;3042;43.194;27.646;2023-12-20T05:27:16;101632.28;;;6.66;100.00
6028;BME280;3042;43.194;27.646;2023-12-20T05:29:43;101732.41;;;7.23;100.00
6028;BME280;3042;43.194;27.646;2023-12-20T05:32:12;101702.47;;;7.12;100.00
6028;BME280;3042;43.194;27.646;2023-12-20T05:34:39;101748.50;;;7.32;100.00
6028;BME280;3042;43.194;27.646;2023-12-20T05:37:06;101754.91;;;7.37;100.00
6028;BME280;3042;43.194;27.646;2023-12-20T05:39:34;101761.03;;;7.39;100.00
6028;BME280;3042;43.194;27.646;2023-12-20T05:42:01;101754.09;;;7.38;100.00
6028;BME280;3042;43.194;27.646;2023-12-20T05:44:28;101758.13;;;7.47;100.00
6028;BME280;3042;43.194;27.646;2023-12-20T05:46:54;101760.47;;;7.44;100.00
6028;BME280;3042;43.194;27.646;2023-12-20T05:49:23;101750.97;;;7.54;100.00
6028;BME280;3042;43.194;27.646;2023-12-20T05:51:50;101752.53;;;7.52;100.00
6028;BME280;3042;43.194;27.646;2023-12-20T05:54:17;101752.97;;;7.58;100.00
6028;BME280;3042;43.194;27.646;2023-12-20T05:56:44;101760.03;;;7.61;100.00
6028;BME280;3042;43.194;27.646;2023-12-20T05:59:11;101763.94;;;7.56;100.00
6028;BME280;3042;43.194;27.646;2023-12-20T06:01:39;101763.59;;;7.39;100.00
6028;BME280;3042;43.194;27.646;2023-12-20T06:04:06;101762.81;;;7.40;100.00
6028;BME280;3042;43.194;27.646;2023-12-20T06:06:40;101693.84;;;7.11;100.00
6028;BME280;3042;43.194;27.646;2023-12-20T06:09:08;101755.66;;;7.60;100.00
6028;BME280;3042;43.194;27.646;2023-12-20T06:11:35;101764.38;;;7.62;100.00
6028;BME280;3042;43.194;27.646;2023-12-20T06:14:02;101765.94;;;7.60;100.00
6028;BME280;3042;43.194;27.646;2023-12-20T06:16:29;101760.03;;;7.61;100.00
6028;BME280;3042;43.194;27.646;2023-12-20T06:18:57;101727.50;;;7.50;100.00
6028;BME280;3042;43.194;27.646;2023-12-20T06:21:24;101758.13;;;7.70;100.00
6028;BME280;3042;43.194;27.646;2023-12-20T06:23:53;101727.50;;;7.50;100.00
6028;BME280;3042;43.194;27.646;2023-12-20T06:26:20;101759.03;;;7.59;100.00
6028;BME280;3042;43.194;27.646;2023-12-20T06:28:47;101761.47;;;7.69;100.00
6028;BME280;3042;43.194;27.646;2023-12-20T06:31:14;101765.06;;;7.48;100.00
6028;BME280;3042;43.194;27.646;2023-12-20T06:33:43;101660.09;;;7.07;100.00
6028;BME280;3042;43.194;27.646;2023-12-20T06:36:11;101693.19;;;7.37;100.00
6028;BME280;3042;43.194;27.646;2023-12-20T06:38:39;101749.84;;;7.51;100.00
6028;BME280;3042;43.194;27.646;2023-12-20T06:41:13;101709.94;;;7.32;100.00
6028;BME280;3042;43.194;27.646;2023-12-20T06:43:41;101747.84;;;7.70;100.00
6028;BME280;3042;43.194;27.646;2023-12-20T06:46:08;101743.34;;;7.68;100.00
6028;BME280;3042;43.194;27.646;2023-12-20T06:48:35;101741.00;;;7.82;100.00
6028;BME280;3042;43.194;27.646;2023-12-20T06:51:02;101736.22;;;7.75;100.00
6028;BME280;3042;43.194;27.646;2023-12-20T06:53:30;101715.75;;;7.42;100.00
6028;BME280;3042;43.194;27.646;2023-12-20T06:55:57;101722.13;;;7.70;100.00
6028;BME280;3042;43.194;27.646;2023-12-20T06:58:26;101731.72;;;7.85;100.00
6028;BME280;3042;43.194;27.646;2023-12-20T07:00:53;101736.44;;;7.55;100.00
6028;BME280;3042;43.194;27.646;2023-12-20T07:03:20;101707.59;;;7.59;100.00
6028;BME280;3042;43.194;27.646;2023-12-20T07:05:48;101718.06;;;7.86;100.00
6028;BME280;3042;43.194;27.646;2023-12-20T07:08:15;101718.06;;;7.86;100.00
6028;BME280;3042;43.194;27.646;2023-12-20T07:10:42;101713.22;;;8.02;100.00
6028;BME280;3042;43.194;27.646;2023-12-20T07:13:09;101709.72;;;8.13;100.00
6028;BME280;3042;43.194;27.646;2023-12-20T07:15:39;101706.09;;;8.23;100.00
6028;BME280;3042;43.194;27.646;2023-12-20T07:18:07;101688.59;;;8.31;100.00
6028;BME280;3042;43.194;27.646;2023-12-20T07:20:34;101706.53;;;8.54;100.00
6028;BME280;3042;43.194;27.646;2023-12-20T07:23:01;101703.06;;;8.54;100.00
6028;BME280;3042;43.194;27.646;2023-12-20T07:25:28;101704.28;;;8.34;100.00
6028;BME280;3042;43.194;27.646;2023-12-20T07:27:58;101704.34;;;8.47;100.00
6028;BME280;3042;43.194;27.646;2023-12-20T07:30:25;101697.84;;;8.65;100.00
6028;BME280;3042;43.194;27.646;2023-12-20T07:32:53;101685.78;;;8.78;100.00
6028;BME280;3042;43.194;27.646;2023-12-20T07:35:21;101694.81;;;8.84;100.00
6028;BME280;3042;43.194;27.646;2023-12-20T07:37:48;101686.00;;;8.94;100.00
6028;BME280;3042;43.194;27.646;2023-12-20T07:40:15;101686.25;;;8.97;100.00
6028;BME280;3042;43.194;27.646;2023-12-20T07:42:43;101677.00;;;9.01;100.00
6028;BME280;3042;43.194;27.646;2023-12-20T07:45:10;101689.78;;;8.86;100.00
6028;BME280;3042;43.194;27.646;2023-12-20T07:47:37;101680.31;;;9.12;100.00
6028;BME280;3042;43.194;27.646;2023-12-20T07:50:08;101666.31;;;9.21;100.00
6028;BME280;3042;43.194;27.646;2023-12-20T07:52:35;101662.16;;;9.37;100.00
6028;BME280;3042;43.194;27.646;2023-12-20T07:55:03;101656.19;;;9.51;100.00
6028;BME280;3042;43.194;27.646;2023-12-20T07:57:30;101647.50;;;9.64;100.00
6028;BME280;3042;43.194;27.646;2023-12-20T07:59:57;101646.09;;;9.82;100.00
6028;BME280;3042;43.194;27.646;2023-12-20T08:02:24;101643.22;;;10.06;100.00
6028;BME280;3042;43.194;27.646;2023-12-20T08:04:51;101640.41;;;10.16;100.00
6028;BME280;3042;43.194;27.646;2023-12-20T08:07:20;101634.44;;;10.30;100.00
6028;BME280;3042;43.194;27.646;2023-12-20T08:09:47;101636.84;;;10.14;100.00
6028;BME280;3042;43.194;27.646;2023-12-20T08:12:14;101634.44;;;10.30;100.00
6028;BME280;3042;43.194;27.646;2023-12-20T08:14:42;101627.28;;;10.41;100.00
6028;BME280;3042;43.194;27.646;2023-12-20T08:17:09;101582.50;;;10.41;100.00
6028;BME280;3042;43.194;27.646;2023-12-20T08:19:38;101609.47;;;10.90;100.00
6028;BME280;3042;43.194;27.646;2023-12-20T08:22:05;101612.50;;;10.83;100.00
6028;BME280;3042;43.194;27.646;2023-12-20T08:24:34;101596.44;;;11.04;100.00
6028;BME280;3042;43.194;27.646;2023-12-20T08:27:03;101513.44;;;10.53;100.00
6028;BME280;3042;43.194;27.646;2023-12-20T08:29:31;101590.38;;;11.03;100.00
6028;BME280;3042;43.194;27.646;2023-12-20T08:31:59;101583.75;;;11.08;100.00
6028;BME280;3042;43.194;27.646;2023-12-20T08:34:26;101582.81;;;11.23;100.00
6028;BME280;3042;43.194;27.646;2023-12-20T08:36:54;101588.75;;;11.36;100.00
6028;BME280;3042;43.194;27.646;2023-12-20T08:39:21;101575.72;;;11.35;100.00
6028;BME280;3042;43.194;27.646;2023-12-20T08:41:49;101570.66;;;11.36;100.00
6028;BME280;3042;43.194;27.646;2023-12-20T08:44:20;101530.88;;;11.34;100.00
6028;BME280;3042;43.194;27.646;2023-12-20T08:46:48;101557.63;;;11.51;100.00
6028;BME280;3042;43.194;27.646;2023-12-20T08:49:15;101431.38;;;10.80;100.00
6028;BME280;3042;43.194;27.646;2023-12-20T08:51:45;101105.75;;;9.01;100.00
6028;BME280;3042;43.194;27.646;2023-12-20T08:54:13;101534.78;;;11.92;100.00
6028;BME280;3042;43.194;27.646;2023-12-20T08:56:41;101280.00;;;10.52;100.00
6028;BME280;3042;43.194;27.646;2023-12-20T08:59:10;101540.97;;;12.12;100.00
6028;BME280;3042;43.194;27.646;2023-12-20T09:01:39;101456.81;;;12.03;100.00
6028;BME280;3042;43.194;27.646;2023-12-20T09:04:06;101504.41;;;12.58;100.00
6028;BME280;3042;43.194;27.646;2023-12-20T09:06:33;101389.56;;;12.23;100.00
6028;BME280;3042;43.194;27.646;2023-12-20T09:09:01;101487.06;;;13.12;100.00
6028;BME280;3042;43.194;27.646;2023-12-20T09:11:28;101485.03;;;13.24;100.00
6028;BME280;3042;43.194;27.646;2023-12-20T09:13:55;101091.84;;;10.96;100.00
6028;BME280;3042;43.194;27.646;2023-12-20T09:16:24;101476.44;;;13.25;100.00
6028;BME280;3042;43.194;27.646;2023-12-20T09:18:51;101472.03;;;13.24;100.00
6028;BME280;3042;43.194;27.646;2023-12-20T09:21:19;101293.44;;;12.36;100.00
6028;BME280;3042;43.194;27.646;2023-12-20T09:23:46;101432.81;;;13.56;100.00
6028;BME280;3042;43.194;27.646;2023-12-20T09:26:13;101444.34;;;13.83;100.00
6028;BME280;3042;43.194;27.646;2023-12-20T09:28:40;101435.38;;;13.96;100.00
6028;BME280;3042;43.194;27.646;2023-12-20T09:31:07;101427.78;;;14.22;100.00
6028;BME280;3042;43.194;27.646;2023-12-20T09:33:36;101393.50;;;14.32;100.00
6028;BME280;3042;43.194;27.646;2023-12-20T09:36:04;101412.25;;;14.46;100.00
6028;BME280;3042;43.194;27.646;2023-12-20T09:38:31;101412.50;;;14.73;100.00
6028;BME280;3042;43.194;27.646;2023-12-20T09:40:58;101394.47;;;15.02;100.00
6028;BME280;3042;43.194;27.646;2023-12-20T09:43:28;101398.13;;;15.07;100.00
6028;BME280;3042;43.194;27.646;2023-12-20T09:45:59;101384.44;;;15.36;100.00
6028;BME280;3042;43.194;27.646;2023-12-20T09:48:27;101374.81;;;15.34;100.00
6028;BME280;3042;43.194;27.646;2023-12-20T09:50:56;101355.66;;;15.33;100.00
6028;BME280;3042;43.194;27.646;2023-12-20T09:53:25;101368.53;;;15.78;100.00
6028;BME280;3042;43.194;27.646;2023-12-20T09:55:58;101361.19;;;15.94;100.00
6028;BME280;3042;43.194;27.646;2023-12-20T09:58:26;101363.28;;;16.04;100.00
6028;BME280;3042;43.194;27.646;2023-12-20T10:00:54;101353.75;;;16.04;100.00
6028;BME280;3042;43.194;27.646;2023-12-20T10:03:24;101361.63;;;16.06;100.00
6028;BME280;3042;43.194;27.646;2023-12-20T10:05:54;101354.03;;;16.14;100.00
6028;BME280;3042;43.194;27.646;2023-12-20T10:08:25;101278.22;;;15.79;100.00
6028;BME280;3042;43.194;27.646;2023-12-20T10:10:52;101343.19;;;16.29;100.00
6028;BME280;3042;43.194;27.646;2023-12-20T10:13:19;101333.22;;;16.44;100.00
6028;BME280;3042;43.194;27.646;2023-12-20T10:15:46;101318.25;;;16.38;100.00
6028;BME280;3042;43.194;27.646;2023-12-20T10:18:14;101330.50;;;16.70;100.00
6028;BME280;3042;43.194;27.646;2023-12-20T10:20:44;101329.47;;;16.93;100.00
6028;BME280;3042;43.194;27.646;2023-12-20T10:23:12;101316.13;;;17.16;100.00
6028;BME280;3042;43.194;27.646;2023-12-20T10:25:42;101311.38;;;17.34;100.00
6028;BME280;3042;43.194;27.646;2023-12-20T10:28:10;101288.03;;;17.40;100.00
6028;BME280;3042;43.194;27.646;2023-12-20T10:30:38;101296.56;;;17.68;100.00
6028;BME280;3042;43.194;27.646;2023-12-20T10:33:06;101291.09;;;17.93;100.00
6028;BME280;3042;43.194;27.646;2023-12-20T10:35:33;101286.28;;;18.12;100.00
6028;BME280;3042;43.194;27.646;2023-12-20T10:38:03;101278.31;;;18.06;100.00
6028;BME280;3042;43.194;27.646;2023-12-20T10:40:31;101202.53;;;17.71;100.00
6028;BME280;3042;43.194;27.646;2023-12-20T10:43:04;101278.44;;;18.12;100.00
6028;BME280;3042;43.194;27.646;2023-12-20T10:45:31;101265.94;;;18.38;100.00
6028;BME280;3042;43.194;27.646;2023-12-20T10:47:58;101260.16;;;18.56;100.00
6028;BME280;3042;43.194;27.646;2023-12-20T10:50:27;101251.75;;;18.72;100.00
6028;BME280;3042;43.194;27.646;2023-12-20T10:52:55;101238.13;;;18.89;100.00
6028;BME280;3042;43.194;27.646;2023-12-20T10:55:23;101241.84;;;19.00;100.00
6028;BME280;3042;43.194;27.646;2023-12-20T10:57:50;101246.91;;;18.91;100.00
6028;BME280;3042;43.194;27.646;2023-12-20T11:00:21;101159.28;;;18.73;100.00
6028;BME280;3042;43.194;27.646;2023-12-20T11:02:50;101228.41;;;19.32;100.00
6028;BME280;3042;43.194;27.646;2023-12-20T11:05:28;101215.25;;;19.85;100.00
6028;BME280;3042;43.194;27.646;2023-12-20T11:08:01;101205.94;;;20.07;100.00
6028;BME280;3042;43.194;27.646;2023-12-20T11:10:36;101209.84;;;20.40;100.00
6028;BME280;3042;43.194;27.646;2023-12-20T11:13:09;101210.94;;;20.56;100.00
6028;BME280;3042;43.194;27.646;2023-12-20T11:15:38;101198.72;;;20.61;100.00
6028;BME280;3042;43.194;27.646;2023-12-20T11:18:06;101192.59;;;20.62;100.00
6028;BME280;3042;43.194;27.646;2023-12-20T11:20:37;101160.34;;;20.78;100.00
6028;BME280;3042;43.194;27.646;2023-12-20T11:23:05;101159.63;;;20.93;100.00
6028;BME280;3042;43.194;27.646;2023-12-20T11:25:46;101174.78;;;21.26;100.00
6028;BME280;3042;43.194;27.646;2023-12-20T11:28:14;101163.56;;;21.46;100.00
6028;BME280;3042;43.194;27.646;2023-12-20T11:30:50;101153.09;;;21.58;97.10
6028;BME280;3042;43.194;27.646;2023-12-20T11:33:21;101148.88;;;21.88;93.88
6028;BME280;3042;43.194;27.646;2023-12-20T11:35:48;101118.25;;;22.19;93.29
6028;BME280;3042;43.194;27.646;2023-12-20T11:38:16;101142.06;;;22.51;90.65
6028;BME280;3042;43.194;27.646;2023-12-20T11:40:43;101130.66;;;22.63;87.23
6028;BME280;3042;43.194;27.646;2023-12-20T11:43:11;101129.81;;;22.81;86.34
6028;BME280;3042;43.194;27.646;2023-12-20T11:45:50;101109.59;;;22.88;84.58
6028;BME280;3042;43.194;27.646;2023-12-20T11:48:18;101090.28;;;22.70;79.42
6028;BME280;3042;43.194;27.646;2023-12-20T11:50:46;101114.88;;;22.99;80.31
6028;BME280;3042;43.194;27.646;2023-12-20T11:53:13;101078.84;;;22.82;78.87
6028;BME280;3042;43.194;27.646;2023-12-20T11:55:41;101113.13;;;23.11;78.78
6028;BME280;3042;43.194;27.646;2023-12-20T11:58:08;101103.47;;;23.18;79.73
6028;BME280;3042;43.194;27.646;2023-12-20T12:00:35;101098.09;;;23.49;79.64
6028;BME280;3042;43.194;27.646;2023-12-20T12:03:04;101082.25;;;23.58;75.49
6028;BME280;3042;43.194;27.646;2023-12-20T12:05:31;101077.75;;;23.85;76.29
6028;BME280;3042;43.194;27.646;2023-12-20T12:07:59;101048.66;;;23.94;75.27
6028;BME280;3042;43.194;27.646;2023-12-20T12:10:26;101064.44;;;24.09;73.52
6028;BME280;3042;43.194;27.646;2023-12-20T12:12:53;101054.63;;;24.27;74.35
6028;BME280;3042;43.194;27.646;2023-12-20T12:15:20;101052.72;;;24.44;71.59
6028;BME280;3042;43.194;27.646;2023-12-20T12:17:53;101043.16;;;24.31;68.94
6028;BME280;3042;43.194;27.646;2023-12-20T12:20:23;101047.66;;;24.16;70.84
6028;BME280;3042;43.194;27.646;2023-12-20T12:22:58;101043.03;;;24.49;69.19
6028;BME280;3042;43.194;27.646;2023-12-20T12:25:25;101046.44;;;24.63;71.76
6028;BME280;3042;43.194;27.646;2023-12-20T12:27:53;101037.53;;;24.74;68.57
6028;BME280;3042;43.194;27.646;2023-12-20T12:30:20;101007.66;;;24.66;68.30
6028;BME280;3042;43.194;27.646;2023-12-20T12:32:47;101001.38;;;24.76;67.27
6028;BME280;3042;43.194;27.646;2023-12-20T12:35:15;101022.19;;;25.06;66.77
6028;BME280;3042;43.194;27.646;2023-12-20T12:37:43;101009.09;;;24.96;64.76
6028;BME280;3042;43.194;27.646;2023-12-20T12:40:12;100942.56;;;24.55;63.54
6028;BME280;3042;43.194;27.646;2023-12-20T12:42:40;101014.75;;;24.57;63.87
6028;BME280;3042;43.194;27.646;2023-12-20T12:45:08;101020.09;;;24.51;63.49
6028;BME280;3042;43.194;27.646;2023-12-20T12:47:37;101002.91;;;23.92;60.51
6028;BME280;3042;43.194;27.646;2023-12-20T12:50:05;101020.63;;;23.68;59.52
6028;BME280;3042;43.194;27.646;2023-12-20T12:52:32;101003.84;;;23.86;60.22
6028;BME280;3042;43.194;27.646;2023-12-20T12:55:02;100995.59;;;24.29;62.15
6028;BME280;3042;43.194;27.646;2023-12-20T12:57:30;100997.34;;;24.32;60.15
6028;BME280;3042;43.194;27.646;2023-12-20T12:59:57;101001.94;;;24.07;59.62
6028;BME280;3042;43.194;27.646;2023-12-20T13:02:25;101001.19;;;23.91;59.24